createdAt,value
2022-11-02T00:00:35.165Z,1.55
2022-11-02T00:03:03.258Z,1.58
2022-11-02T00:05:31.506Z,1.80
2022-11-02T00:07:59.208Z,1.65
2022-11-02T00:10:26.734Z,1.10
2022-11-02T00:12:54.291Z,1.75
2022-11-02T00:15:24.785Z,1.17
2022-11-02T00:18:17.697Z,1.35
2022-11-02T00:20:45.247Z,1.70
2022-11-02T00:23:14.647Z,1.45
2022-11-02T00:25:47.915Z,1.40
2022-11-02T00:28:15.973Z,1.40
2022-11-02T00:30:44.077Z,1.42
2022-11-02T00:33:11.873Z,1.33
2022-11-02T00:35:40.059Z,1.60
2022-11-02T00:38:07.850Z,1.23
2022-11-02T00:40:35.726Z,0.80
2022-11-02T00:43:03.508Z,1.30
2022-11-02T00:45:31.040Z,1.40
2022-11-02T00:47:58.674Z,1.27
2022-11-02T00:50:29.458Z,1.40
2022-11-02T00:52:57.389Z,1.45
2022-11-02T00:55:25.695Z,1.20
2022-11-02T00:57:59.904Z,1.40
2022-11-02T01:00:27.512Z,0.93
2022-11-02T01:02:55.435Z,1.40
2022-11-02T01:05:22.875Z,2.17
2022-11-02T01:07:50.802Z,0.93
2022-11-02T01:10:47.223Z,1.38
2022-11-02T01:14:32.736Z,1.67
2022-11-02T01:17:01.393Z,1.05
2022-11-02T01:19:29.349Z,1.55
2022-11-02T01:21:57.987Z,1.45
2022-11-02T01:24:25.936Z,1.40
2022-11-02T01:26:53.944Z,1.48
2022-11-02T01:29:29.539Z,1.35
2022-11-02T01:31:57.108Z,1.50
2022-11-02T01:34:25.109Z,1.33
2022-11-02T01:36:52.962Z,1.30
2022-11-02T01:39:42.470Z,1.90
2022-11-02T01:42:28.238Z,1.40
2022-11-02T01:44:57.475Z,1.40
2022-11-02T01:47:31.342Z,1.88
2022-11-02T01:50:21.855Z,1.45
2022-11-02T01:52:49.836Z,1.67
2022-11-02T01:55:25.665Z,1.10
2022-11-02T01:58:10.768Z,2.25
2022-11-02T02:00:39.451Z,1.35
2022-11-02T02:03:09.442Z,1.48
2022-11-02T02:08:20.574Z,1.27
2022-11-02T02:10:48.083Z,1.20
2022-11-02T02:13:17.098Z,1.63
2022-11-02T02:15:45.066Z,1.48
2022-11-02T02:18:27.305Z,1.00
2022-11-02T02:21:01.017Z,0.95
2022-11-02T02:24:07.668Z,1.48
2022-11-02T02:26:53.270Z,1.52
2022-11-02T02:29:55.268Z,1.42
2022-11-02T02:32:52.862Z,1.17
2022-11-02T02:35:27.503Z,1.33
2022-11-02T02:38:01.309Z,1.95
2022-11-02T02:40:43.461Z,1.23
2022-11-02T02:43:34.238Z,1.10
2022-11-02T02:46:09.460Z,1.15
2022-11-02T02:48:39.872Z,1.50
2022-11-02T02:51:16.959Z,1.55
2022-11-02T02:54:06.378Z,1.05
2022-11-02T02:56:42.735Z,1.13
2022-11-02T02:59:23.427Z,2.08
2022-11-02T03:01:52.622Z,1.17
2022-11-02T03:04:20.091Z,1.15
2022-11-02T03:06:56.946Z,1.35
2022-11-02T03:09:41.618Z,1.30
2022-11-02T03:12:45.699Z,1.35
2022-11-02T03:15:38.044Z,2.95
2022-11-02T03:18:30.917Z,1.10
2022-11-02T03:21:08.506Z,1.42
2022-11-02T03:23:41.987Z,1.70
2022-11-02T03:26:13.106Z,1.02
2022-11-02T03:29:11.157Z,2.20
2022-11-02T03:31:55.710Z,1.45
2022-11-02T03:34:38.690Z,1.45
2022-11-02T03:37:32.857Z,1.67
2022-11-02T03:40:00.790Z,1.60
2022-11-02T03:42:32.655Z,1.98
2022-11-02T03:45:12.198Z,1.33
2022-11-02T03:47:44.908Z,1.42
2022-11-02T03:50:17.575Z,1.52
2022-11-02T03:52:47.362Z,1.48
2022-11-02T03:55:25.515Z,1.35
2022-11-02T03:57:53.577Z,1.60
2022-11-02T04:00:29.899Z,1.60
2022-11-02T04:03:08.032Z,1.45
2022-11-02T04:05:41.162Z,1.25
2022-11-02T04:08:22.233Z,1.25
2022-11-02T04:11:18.692Z,1.40
2022-11-02T04:14:06.731Z,1.92
2022-11-02T04:16:40.124Z,0.87
2022-11-02T04:19:39.546Z,1.17
2022-11-02T04:22:27.414Z,1.50
2022-11-02T04:25:20.976Z,1.50
2022-11-02T04:28:09.567Z,1.10
2022-11-02T04:30:46.124Z,1.27
2022-11-02T04:33:32.910Z,1.23
2022-11-02T04:36:29.674Z,1.30
2022-11-02T04:38:58.681Z,2.17
2022-11-02T04:41:43.061Z,1.70
2022-11-02T04:44:46.413Z,1.42
2022-11-02T04:47:21.080Z,1.27
2022-11-02T04:49:48.666Z,1.40
2022-11-02T04:52:19.498Z,1.38
2022-11-02T04:54:50.659Z,1.45
2022-11-02T04:57:19.042Z,1.30
2022-11-02T04:59:47.651Z,1.30
2022-11-02T05:02:15.708Z,1.17
2022-11-02T05:04:44.684Z,1.23
2022-11-02T05:07:13.431Z,1.50
2022-11-02T05:09:42.387Z,1.40
2022-11-02T05:12:11.450Z,1.00
2022-11-02T05:14:39.008Z,1.35
2022-11-02T05:17:07.588Z,1.70
2022-11-02T05:19:37.210Z,1.40
2022-11-02T05:22:06.327Z,1.20
2022-11-02T05:24:34.535Z,1.60
2022-11-02T05:27:02.358Z,1.00
2022-11-02T05:29:33.457Z,2.28
2022-11-02T05:32:16.269Z,1.50
2022-11-02T05:34:44.006Z,1.30
2022-11-02T05:37:12.095Z,1.67
2022-11-02T05:39:40.025Z,1.23
2022-11-02T05:42:07.909Z,1.60
2022-11-02T05:44:59.475Z,1.90
2022-11-02T05:47:27.024Z,1.20
2022-11-02T05:49:54.924Z,1.70
2022-11-02T05:52:22.897Z,1.13
2022-11-02T05:54:55.573Z,1.33
2022-11-02T05:57:52.814Z,1.17
2022-11-02T06:00:22.080Z,1.83
2022-11-02T06:02:58.824Z,1.42
2022-11-02T06:05:30.544Z,1.50
2022-11-02T06:08:02.637Z,1.08
2022-11-02T06:10:43.131Z,1.55
2022-11-02T06:13:11.080Z,1.40
2022-11-02T06:15:38.891Z,0.85
2022-11-02T06:18:06.354Z,1.50
2022-11-02T06:20:34.338Z,0.95
2022-11-02T06:23:02.125Z,1.30
2022-11-02T06:25:30.310Z,1.35
2022-11-02T06:27:57.961Z,1.00
2022-11-02T06:30:29.867Z,1.58
2022-11-02T06:33:01.597Z,1.60
2022-11-02T06:35:33.834Z,1.35
2022-11-02T06:38:01.434Z,1.20
2022-11-02T06:40:29.405Z,1.38
2022-11-02T06:43:17.373Z,1.23
2022-11-02T06:45:45.522Z,0.88
2022-11-02T06:48:13.485Z,1.02
2022-11-02T06:50:40.903Z,1.55
2022-11-02T06:53:19.805Z,1.25
2022-11-02T06:55:55.572Z,1.52
2022-11-02T06:58:24.813Z,1.55
2022-11-02T07:00:59.280Z,1.55
2022-11-02T07:03:27.861Z,1.30
2022-11-02T07:06:20.319Z,0.90
2022-11-02T07:08:50.365Z,1.42
2022-11-02T07:11:18.517Z,0.95
2022-11-02T07:13:46.455Z,1.15
2022-11-02T07:16:30.505Z,0.98
2022-11-02T07:18:58.196Z,1.45
2022-11-02T07:21:25.701Z,1.40
2022-11-02T07:23:53.185Z,0.95
2022-11-02T07:26:21.295Z,1.13
2022-11-02T07:28:49.229Z,1.40
2022-11-02T07:31:20.931Z,1.17
2022-11-02T07:33:48.494Z,1.75
2022-11-02T07:36:42.201Z,1.33
2022-11-02T07:39:11.416Z,1.35
2022-11-02T07:41:41.223Z,0.90
2022-11-02T07:44:35.097Z,1.17
2022-11-02T07:47:03.148Z,1.85
2022-11-02T07:49:30.634Z,1.40
2022-11-02T07:51:58.606Z,1.10
2022-11-02T07:54:29.936Z,1.55
2022-11-02T07:56:57.323Z,1.13
2022-11-02T07:59:26.167Z,1.40
2022-11-02T08:02:14.061Z,1.77
2022-11-02T08:04:44.868Z,1.55
2022-11-02T08:07:18.753Z,1.80
2022-11-02T08:09:50.515Z,1.75
2022-11-02T08:12:22.289Z,1.50
2022-11-02T08:14:51.875Z,2.35
2022-11-02T08:17:26.518Z,1.52
2022-11-02T08:19:56.377Z,1.40
2022-11-02T08:22:30.058Z,1.20
2022-11-02T08:25:24.398Z,1.63
2022-11-02T08:28:01.826Z,1.00
2022-11-02T08:30:31.465Z,1.15
2022-11-02T08:33:13.056Z,1.42
2022-11-02T08:35:48.415Z,1.30
2022-11-02T08:38:29.702Z,1.33
2022-11-02T08:40:58.365Z,1.17
2022-11-02T08:43:51.361Z,0.82
2022-11-02T08:46:56.378Z,1.38
2022-11-02T08:49:29.506Z,1.13
2022-11-02T08:52:06.606Z,2.08
2022-11-02T08:54:36.211Z,1.23
2022-11-02T08:57:17.129Z,1.40
2022-11-02T08:59:50.532Z,1.23
2022-11-02T09:02:25.532Z,1.10
2022-11-02T09:04:56.475Z,1.23
2022-11-02T09:07:30.473Z,1.25
2022-11-02T09:09:58.430Z,1.73
2022-11-02T09:12:47.850Z,1.23
2022-11-02T09:15:16.444Z,1.17
2022-11-02T09:17:49.998Z,0.93
2022-11-02T09:20:19.690Z,1.35
2022-11-02T09:22:47.725Z,1.40
2022-11-02T09:25:17.134Z,1.45
2022-11-02T09:27:46.107Z,1.60
2022-11-02T09:30:13.605Z,1.38
2022-11-02T09:33:07.028Z,1.35
2022-11-02T09:35:45.944Z,1.45
2022-11-02T09:38:16.338Z,1.42
2022-11-02T09:41:21.666Z,0.93
2022-11-02T09:44:41.198Z,1.13
2022-11-02T09:48:16.102Z,1.38
2022-11-02T09:51:03.159Z,1.20
2022-11-02T09:54:00.107Z,0.82
2022-11-02T09:56:41.574Z,1.08
2022-11-02T09:59:28.400Z,1.20
2022-11-02T10:02:15.937Z,1.08
2022-11-02T10:05:10.287Z,1.58
2022-11-02T10:08:59.815Z,1.10
2022-11-02T10:12:04.571Z,1.00
2022-11-02T10:15:04.445Z,1.48
2022-11-02T10:17:37.215Z,0.85
2022-11-02T10:20:44.459Z,1.77
2022-11-02T10:24:26.951Z,1.20
2022-11-02T10:27:17.330Z,1.48
2022-11-02T10:30:16.631Z,1.35
2022-11-02T10:32:56.165Z,1.38
2022-11-02T10:36:18.545Z,0.95
2022-11-02T10:39:38.872Z,1.50
2022-11-02T10:42:45.565Z,1.40
2022-11-02T10:46:00.988Z,1.00
2022-11-02T10:49:03.743Z,1.20
2022-11-02T10:51:31.616Z,1.10
2022-11-02T10:56:42.734Z,1.15
2022-11-02T10:59:35.117Z,0.77
2022-11-02T11:02:03.121Z,1.40
2022-11-02T11:04:33.968Z,0.90
2022-11-02T11:07:30.543Z,1.10
2022-11-02T11:10:01.525Z,1.40
2022-11-02T11:12:37.921Z,1.48
2022-11-02T11:21:05.125Z,1.50
2022-11-02T11:23:33.118Z,1.65
2022-11-02T11:26:43.670Z,1.30
2022-11-02T11:29:28.116Z,1.10
2022-11-02T11:31:55.645Z,1.33
2022-11-02T11:34:32.412Z,1.40
2022-11-02T11:37:19.057Z,1.23
2022-11-02T11:39:55.054Z,1.23
2022-11-02T11:42:31.915Z,1.20
2022-11-02T11:45:21.119Z,1.52
2022-11-02T11:48:07.418Z,1.45
2022-11-02T11:50:35.517Z,1.23
2022-11-02T11:53:23.618Z,0.95
2022-11-02T11:56:03.649Z,1.20
2022-11-02T11:58:33.960Z,1.50
2022-11-02T12:01:11.072Z,0.90
2022-11-02T12:03:57.386Z,1.25
2022-11-02T12:06:55.581Z,1.05
2022-11-02T12:09:33.182Z,1.10
2022-11-02T12:12:12.650Z,1.45
2022-11-02T12:15:24.702Z,1.25
2022-11-02T12:17:55.212Z,1.15
2022-11-02T12:21:10.969Z,1.23
2022-11-02T12:24:17.485Z,1.40
2022-11-02T12:27:29.329Z,1.08
2022-11-02T12:30:16.628Z,1.40
2022-11-02T12:33:18.850Z,1.00
2022-11-02T12:36:19.937Z,1.25
2022-11-02T12:39:32.607Z,1.10
2022-11-02T12:42:30.908Z,1.02
2022-11-02T12:45:21.986Z,1.35
2022-11-02T12:51:16.853Z,1.20
2022-11-02T12:53:59.735Z,1.08
2022-11-02T12:56:50.815Z,0.80
2022-11-02T12:59:34.855Z,1.05
2022-11-02T13:02:42.934Z,1.13
2022-11-02T13:05:21.220Z,1.20
2022-11-02T13:08:14.114Z,0.77
2022-11-02T13:10:59.099Z,0.95
2022-11-02T13:13:48.178Z,1.00
2022-11-02T13:16:22.386Z,0.90
2022-11-02T13:18:55.513Z,1.15
2022-11-02T13:21:41.264Z,0.93
2022-11-02T13:24:19.002Z,1.20
2022-11-02T13:26:57.291Z,0.68
2022-11-02T13:29:39.170Z,1.02
2022-11-02T13:32:37.865Z,1.40
2022-11-02T13:35:33.821Z,0.80
2022-11-02T13:38:34.371Z,1.00
2022-11-02T13:41:26.794Z,1.00
2022-11-02T13:44:56.110Z,1.23
2022-11-02T13:47:41.702Z,1.20
2022-11-02T13:50:17.251Z,1.02
2022-11-02T13:52:52.050Z,0.93
2022-11-02T13:55:41.383Z,1.05
2022-11-02T13:58:47.161Z,1.40
2022-11-02T14:01:40.981Z,1.20
2022-11-02T14:04:46.020Z,0.93
2022-11-02T14:07:30.890Z,0.90
2022-11-02T14:10:21.002Z,0.80
2022-11-02T14:12:50.991Z,1.13
2022-11-02T14:15:18.740Z,1.40
2022-11-02T14:18:15.376Z,1.45
2022-11-02T14:20:47.557Z,0.88
2022-11-02T14:23:35.802Z,0.85
2022-11-02T14:26:54.588Z,0.98
2022-11-02T14:29:42.205Z,0.88
2022-11-02T14:32:37.232Z,1.05
2022-11-02T14:35:44.386Z,0.93
2022-11-02T14:39:04.542Z,0.88
2022-11-02T14:41:47.195Z,1.25
2022-11-02T14:45:15.642Z,1.23
2022-11-02T14:47:49.336Z,1.00
2022-11-02T14:50:23.271Z,1.23
2022-11-02T14:53:25.274Z,0.98
2022-11-02T14:55:55.790Z,1.20
2022-11-02T14:58:32.360Z,1.33
2022-11-02T15:01:04.027Z,0.88
2022-11-02T15:03:41.215Z,1.00
2022-11-02T15:06:12.557Z,1.48
2022-11-02T15:09:06.303Z,1.20
2022-11-02T15:11:48.016Z,1.15
2022-11-02T15:14:35.660Z,1.30
2022-11-02T15:17:24.579Z,1.10
2022-11-02T15:20:15.520Z,1.05
2022-11-02T15:22:53.970Z,1.35
2022-11-02T15:25:25.844Z,1.45
2022-11-02T15:28:08.339Z,1.63
2022-11-02T15:30:51.517Z,0.93
2022-11-02T15:33:34.289Z,1.10
2022-11-02T15:36:06.696Z,1.08
2022-11-02T15:38:39.718Z,1.13
2022-11-02T15:41:44.101Z,1.08
2022-11-02T15:44:18.621Z,0.93
2022-11-02T15:47:26.910Z,1.08
2022-11-02T15:50:10.013Z,1.33
2022-11-02T15:53:23.367Z,1.50
2022-11-02T15:56:40.196Z,1.20
2022-11-02T15:59:36.011Z,1.10
2022-11-02T16:02:37.679Z,1.48
2022-11-02T16:05:09.667Z,1.25
2022-11-02T16:08:05.015Z,1.23
2022-11-02T16:10:34.895Z,1.10
2022-11-02T16:13:29.534Z,1.65
2022-11-02T16:16:09.633Z,1.38
2022-11-02T16:19:02.129Z,1.20
2022-11-02T16:21:30.575Z,1.33
2022-11-02T16:23:59.370Z,1.50
2022-11-02T16:26:29.804Z,1.50
2022-11-02T16:29:00.649Z,1.20
2022-11-02T16:31:34.024Z,1.00
2022-11-02T16:34:18.896Z,1.20
2022-11-02T16:36:47.621Z,1.33
2022-11-02T16:39:18.949Z,1.55
2022-11-02T16:44:30.859Z,1.05
2022-11-02T16:47:14.459Z,1.73
2022-11-02T16:49:54.138Z,1.40
2022-11-02T16:52:28.002Z,1.92
2022-11-02T16:54:56.265Z,1.25
2022-11-02T16:57:27.843Z,1.20
2022-11-02T17:00:13.908Z,1.50
2022-11-02T17:02:44.023Z,1.52
2022-11-02T17:05:19.958Z,1.57
2022-11-02T17:08:15.421Z,1.38
2022-11-02T17:10:45.273Z,1.40
2022-11-02T17:13:44.929Z,1.17
2022-11-02T17:16:13.180Z,1.23
2022-11-02T17:18:44.623Z,1.02
2022-11-02T17:21:26.811Z,1.10
2022-11-02T17:23:57.999Z,1.17
2022-11-02T17:26:37.944Z,1.77
2022-11-02T17:29:24.985Z,1.73
2022-11-02T17:32:17.092Z,2.60
2022-11-02T17:34:56.725Z,1.30
2022-11-02T17:37:32.406Z,1.35
2022-11-02T17:40:03.598Z,2.17
2022-11-02T17:45:39.463Z,1.33
2022-11-02T17:48:10.015Z,1.60
2022-11-02T17:50:41.915Z,1.30
2022-11-02T17:53:15.765Z,1.67
2022-11-02T17:55:46.505Z,1.60
2022-11-02T17:58:17.459Z,2.20
2022-11-02T18:01:14.703Z,2.08
2022-11-02T18:03:42.748Z,2.05
2022-11-02T18:06:10.615Z,2.22
2022-11-02T18:09:08.031Z,2.53
2022-11-02T18:11:57.577Z,2.17
2022-11-02T18:14:25.716Z,2.50
2022-11-02T18:16:59.282Z,2.03
2022-11-02T18:19:28.409Z,2.42
2022-11-02T18:22:06.688Z,2.90
2022-11-02T18:24:50.776Z,2.53
2022-11-02T18:27:28.862Z,2.35
2022-11-02T18:30:02.830Z,2.50
2022-11-02T18:32:38.107Z,2.40
2022-11-02T18:35:21.046Z,4.25
2022-11-02T18:37:52.172Z,4.70
2022-11-02T18:40:28.186Z,4.93
2022-11-02T18:43:10.027Z,4.15
2022-11-02T18:45:38.912Z,3.40
2022-11-02T18:48:22.139Z,3.55
2022-11-02T18:50:55.482Z,3.28
2022-11-02T18:53:24.406Z,3.38
2022-11-02T18:55:55.182Z,2.42
2022-11-02T18:58:23.093Z,5.55
2022-11-02T19:00:51.011Z,3.90
2022-11-02T19:03:18.819Z,4.85
2022-11-02T19:06:05.087Z,3.63
2022-11-02T19:08:51.460Z,3.22
2022-11-02T19:11:19.284Z,2.70
2022-11-02T19:13:47.155Z,2.58
2022-11-02T19:16:14.973Z,2.45
2022-11-02T19:18:42.863Z,3.33
2022-11-02T19:21:21.905Z,3.50
2022-11-02T19:23:53.494Z,5.07
2022-11-02T19:26:21.789Z,6.15
2022-11-02T19:29:14.950Z,4.93
2022-11-02T19:31:43.305Z,3.92
2022-11-02T19:34:11.485Z,6.13
2022-11-02T19:36:39.343Z,5.75
2022-11-02T19:39:09.608Z,4.55
2022-11-02T19:41:38.551Z,5.57
2022-11-02T19:44:09.985Z,2.53
2022-11-02T19:46:38.061Z,1.50
2022-11-02T19:49:06.092Z,1.50
2022-11-02T19:51:34.041Z,1.88
2022-11-02T19:54:03.834Z,1.40
2022-11-02T19:56:35.402Z,1.60
2022-11-02T19:59:04.175Z,2.38
2022-11-02T20:01:47.545Z,2.53
2022-11-02T20:04:23.925Z,1.42
2022-11-02T20:06:51.891Z,2.47
2022-11-02T20:09:22.680Z,1.85
2022-11-02T20:11:50.716Z,2.13
2022-11-02T20:14:26.766Z,1.30
2022-11-02T20:17:04.517Z,1.70
2022-11-02T20:19:45.540Z,1.77
2022-11-02T20:22:13.793Z,1.67
2022-11-02T20:24:41.736Z,1.50
2022-11-02T20:27:15.085Z,1.60
2022-11-02T20:29:44.488Z,1.23
2022-11-02T20:32:37.537Z,1.55
2022-11-02T20:35:13.449Z,1.70
2022-11-02T20:37:41.738Z,1.85
2022-11-02T20:40:10.355Z,1.75
2022-11-02T20:42:38.296Z,1.63
2022-11-02T20:45:06.779Z,1.30
2022-11-02T20:47:34.717Z,1.40
2022-11-02T20:50:02.651Z,1.55
2022-11-02T20:52:44.197Z,1.52
2022-11-02T20:55:17.779Z,1.50
2022-11-02T20:57:50.494Z,1.50
2022-11-02T21:00:20.696Z,1.60
2022-11-02T21:02:57.982Z,1.35
2022-11-02T21:05:32.698Z,1.30
2022-11-02T21:08:25.748Z,1.45
2022-11-02T21:11:26.234Z,1.50
2022-11-02T21:13:54.214Z,1.33
2022-11-02T21:16:22.898Z,1.42
2022-11-02T21:18:50.759Z,1.60
2022-11-02T21:21:22.381Z,1.58
2022-11-02T21:23:50.510Z,1.33
2022-11-02T21:26:18.375Z,1.83
2022-11-02T21:29:00.037Z,1.33
2022-11-02T21:31:33.911Z,1.10
2022-11-02T21:34:01.914Z,1.38
2022-11-02T21:36:30.394Z,1.40
2022-11-02T21:39:35.968Z,1.48
2022-11-02T21:42:04.475Z,1.30
2022-11-02T21:44:37.060Z,1.35
2022-11-02T21:47:35.760Z,1.83
2022-11-02T21:50:18.028Z,1.10
2022-11-02T21:52:56.016Z,1.63
2022-11-02T21:55:23.949Z,1.58
2022-11-02T21:57:51.805Z,1.17
2022-11-02T22:03:42.172Z,1.45
2022-11-02T22:06:35.002Z,1.40
2022-11-02T22:09:27.802Z,1.20
2022-11-02T22:12:19.859Z,1.55
2022-11-02T22:14:47.701Z,1.50
2022-11-02T22:17:49.522Z,1.63
2022-11-02T22:20:19.163Z,1.67
2022-11-02T22:22:47.143Z,1.58
2022-11-02T22:25:16.073Z,1.35
2022-11-02T22:27:45.316Z,1.90
2022-11-02T22:30:18.691Z,1.40
2022-11-02T22:32:46.671Z,1.20
2022-11-02T22:35:21.791Z,1.33
2022-11-02T22:38:08.267Z,2.28
2022-11-02T22:40:38.697Z,1.60
2022-11-02T22:43:06.822Z,1.45
2022-11-02T22:45:34.838Z,1.55
2022-11-02T22:48:02.697Z,1.70
2022-11-02T22:50:30.572Z,1.65
2022-11-02T22:52:58.468Z,1.58
2022-11-02T22:55:26.363Z,1.58
2022-11-02T22:58:06.123Z,1.58
2022-11-02T23:00:35.164Z,1.67
2022-11-02T23:03:03.221Z,1.60
2022-11-02T23:05:31.399Z,1.48
2022-11-02T23:08:24.828Z,1.17
2022-11-02T23:11:18.495Z,1.67
2022-11-02T23:14:05.686Z,1.23
2022-11-02T23:16:48.746Z,1.50
2022-11-02T23:19:31.586Z,1.75
2022-11-02T23:22:21.807Z,1.23
2022-11-02T23:25:09.257Z,1.58
2022-11-02T23:28:13.149Z,1.15
2022-11-02T23:31:00.344Z,1.40
2022-11-02T23:33:33.671Z,1.58
2022-11-02T23:36:11.408Z,1.70
2022-11-02T23:39:03.091Z,1.58
2022-11-02T23:41:33.974Z,1.15
2022-11-02T23:44:13.813Z,1.73
2022-11-02T23:46:53.551Z,1.77
2022-11-02T23:49:21.513Z,1.48
2022-11-02T23:52:07.852Z,1.92
2022-11-02T23:54:54.119Z,1.58
2022-11-02T23:57:22.453Z,1.88
2022-11-02T23:59:50.488Z,1.77
